Time;durP1;ratioP1;P1;durP2;ratioP2;P2;SDS_P1;SDS_P2;PMS_P1;PMS_P2;Temp;Humidity;BMP_temperature;BMP_pressure;BME280_temperature;BME280_humidity;BME280_pressure;Samples;Min_cycle;Max_cycle;Signal;HPM_P1;HPM_P2
2023/09/10 00:01:12;;;;;;;64.15;57.25;;;19.00;99.20;;;;;;5025029;28;20075;-75
2023/09/10 00:03:38;;;;;;;68.63;61.33;;;19.00;99.30;;;;;;5001608;28;20062;-75
2023/09/10 00:06:07;;;;;;;65.20;58.40;;;19.00;99.30;;;;;;5060093;28;20045;-74
2023/09/10 00:08:34;;;;;;;61.92;55.30;;;19.00;99.40;;;;;;5021256;28;20505;-74
2023/09/10 00:11:00;;;;;;;61.80;55.08;;;18.90;99.40;;;;;;5043745;28;20048;-74
2023/09/10 00:13:26;;;;;;;63.83;56.78;;;18.90;99.50;;;;;;5046187;28;20044;-75
2023/09/10 00:15:53;;;;;;;62.10;55.75;;;18.90;99.60;;;;;;5046900;28;20037;-75
2023/09/10 00:18:19;;;;;;;63.85;57.03;;;18.90;99.70;;;;;;5043286;28;20905;-75
2023/09/10 00:20:46;;;;;;;61.40;55.05;;;18.80;99.80;;;;;;5044059;28;20407;-75
2023/09/10 00:23:13;;;;;;;58.58;52.42;;;18.80;99.80;;;;;;5035298;28;20596;-75
2023/09/10 00:25:38;;;;;;;57.95;51.78;;;18.70;99.90;;;;;;5015522;28;20044;-75
2023/09/10 00:28:04;;;;;;;56.17;50.40;;;18.70;99.90;;;;;;5019420;28;20323;-76
2023/09/10 00:30:30;;;;;;;58.58;52.47;;;18.70;99.90;;;;;;5040724;28;20372;-75
2023/09/10 00:32:56;;;;;;;53.25;47.88;;;18.60;99.90;;;;;;5037573;28;20415;-75
2023/09/10 00:35:21;;;;;;;51.70;46.50;;;18.60;99.90;;;;;;5034180;28;20044;-75
2023/09/10 00:37:47;;;;;;;50.65;45.67;;;18.70;99.90;;;;;;5022476;28;20089;-75
2023/09/10 00:40:14;;;;;;;54.63;49.05;;;18.60;99.90;;;;;;5003576;28;20048;-77
2023/09/10 00:42:42;;;;;;;50.72;45.72;;;18.60;99.90;;;;;;5046869;28;20325;-77
2023/09/10 00:45:12;;;;;;;49.22;44.38;;;18.60;99.90;;;;;;5037210;28;20056;-76
2023/09/10 00:47:44;;;;;;;46.50;42.00;;;18.50;99.90;;;;;;5033477;28;20051;-74
2023/09/10 00:50:10;;;;;;;47.42;42.92;;;18.50;99.90;;;;;;5052419;28;20076;-74
2023/09/10 00:52:40;;;;;;;45.35;41.22;;;18.50;99.90;;;;;;5040735;28;20052;-73
2023/09/10 00:55:07;;;;;;;41.60;37.75;;;18.50;99.90;;;;;;5037799;28;20615;-74
2023/09/10 00:57:32;;;;;;;43.55;39.45;;;18.50;99.90;;;;;;5027889;28;20056;-75
2023/09/10 00:59:59;;;;;;;47.83;42.97;;;18.40;99.90;;;;;;5054574;28;20426;-75
2023/09/10 01:02:25;;;;;;;48.88;43.88;;;18.40;99.90;;;;;;5030690;28;20059;-75
2023/09/10 01:04:51;;;;;;;49.75;44.80;;;18.40;99.90;;;;;;5018851;28;20056;-75
2023/09/10 01:07:17;;;;;;;50.65;45.30;;;18.40;99.90;;;;;;5033984;28;20044;-75
2023/09/10 01:09:42;;;;;;;51.55;46.17;;;18.40;99.90;;;;;;5036205;28;20719;-78
2023/09/10 01:12:14;;;;;;;53.60;47.95;;;18.40;99.90;;;;;;5054352;28;20337;-77
2023/09/10 01:15:23;;;;;;;53.45;47.72;;;18.40;99.90;;;;;;5035498;28;20892;-78
2023/09/10 01:18:07;;;;;;;52.28;46.67;;;18.30;99.90;;;;;;5038630;28;20048;-79
2023/09/10 01:21:06;;;;;;;57.67;51.53;;;18.30;99.90;;;;;;5033571;28;20122;-76
2023/09/10 01:24:06;;;;;;;61.88;54.55;;;18.30;99.90;;;;;;5014714;28;20051;-76
2023/09/10 01:26:32;;;;;;;57.47;51.28;;;18.30;99.90;;;;;;5037476;28;20044;-76
2023/09/10 01:28:57;;;;;;;56.78;50.63;;;18.30;99.90;;;;;;5011260;28;20052;-74
2023/09/10 01:31:23;;;;;;;59.25;52.60;;;18.20;99.90;;;;;;5002644;28;20052;-75
2023/09/10 01:33:56;;;;;;;59.13;52.72;;;18.20;99.90;;;;;;5057628;28;20055;-74
2023/09/10 01:36:41;;;;;;;53.63;48.13;;;18.20;99.90;;;;;;5042108;28;20490;-75
2023/09/10 01:39:25;;;;;;;53.22;47.47;;;18.20;99.90;;;;;;5030649;28;20057;-75
2023/09/10 01:41:51;;;;;;;54.85;49.03;;;18.20;99.90;;;;;;5035617;28;20044;-74
2023/09/10 01:44:18;;;;;;;58.83;52.08;;;18.20;99.90;;;;;;5035953;28;20071;-77
2023/09/10 01:46:45;;;;;;;58.95;50.70;;;18.20;99.90;;;;;;5034228;28;20048;-74
2023/09/10 01:49:11;;;;;;;58.22;51.90;;;18.20;99.90;;;;;;5037197;28;20485;-74
2023/09/10 01:51:37;;;;;;;60.40;52.60;;;18.20;99.90;;;;;;5040972;28;20609;-74
2023/09/10 01:54:03;;;;;;;58.88;52.72;;;18.20;99.90;;;;;;5021558;28;20062;-76
2023/09/10 01:56:29;;;;;;;58.40;52.13;;;18.20;99.90;;;;;;5034577;28;20044;-76
2023/09/10 01:58:55;;;;;;;60.92;53.35;;;18.20;99.90;;;;;;5017907;28;20047;-79
2023/09/10 02:01:20;;;;;;;60.05;53.20;;;18.20;99.90;;;;;;5035160;28;20398;-77
2023/09/10 02:03:46;;;;;;;59.60;53.17;;;18.20;99.90;;;;;;5036140;28;20923;-76
2023/09/10 02:06:12;;;;;;;55.80;49.95;;;18.20;99.90;;;;;;5014417;28;21831;-77
2023/09/10 02:08:38;;;;;;;57.28;50.17;;;18.20;99.90;;;;;;5055330;28;20082;-78
2023/09/10 02:11:04;;;;;;;54.92;49.25;;;18.20;99.90;;;;;;5036518;28;20537;-76
2023/09/10 02:13:30;;;;;;;57.05;51.03;;;18.20;99.90;;;;;;5032016;28;20506;-76
2023/09/10 02:15:56;;;;;;;53.75;47.92;;;18.10;99.90;;;;;;5037127;28;20060;-78
2023/09/10 02:18:22;;;;;;;50.30;44.88;;;18.10;99.90;;;;;;5022979;28;20461;-77
2023/09/10 02:20:48;;;;;;;50.03;44.72;;;18.10;99.90;;;;;;4999869;28;20060;-78
2023/09/10 02:23:14;;;;;;;51.80;46.40;;;18.10;99.90;;;;;;5012214;28;20047;-78
2023/09/10 02:25:40;;;;;;;51.05;45.65;;;18.00;99.90;;;;;;5031680;28;20099;-78
2023/09/10 02:28:07;;;;;;;47.88;42.97;;;18.00;99.90;;;;;;5018868;28;20048;-77
2023/09/10 02:30:33;;;;;;;48.60;43.55;;;18.00;99.90;;;;;;5056626;28;20049;-74
2023/09/10 02:32:58;;;;;;;46.80;42.03;;;18.00;99.90;;;;;;5043862;28;20375;-74
2023/09/10 02:35:24;;;;;;;42.60;38.45;;;17.90;99.90;;;;;;5035539;28;20176;-73
2023/09/10 02:37:50;;;;;;;47.00;42.17;;;17.90;99.90;;;;;;5020767;28;20048;-74
2023/09/10 02:40:16;;;;;;;43.28;39.08;;;17.90;99.90;;;;;;5022699;28;20068;-74
2023/09/10 02:42:41;;;;;;;46.75;42.17;;;17.90;99.90;;;;;;5025172;28;20131;-73
2023/09/10 02:45:08;;;;;;;46.50;41.80;;;17.80;99.90;;;;;;5060880;28;20049;-74
2023/09/10 02:47:34;;;;;;;46.28;41.55;;;17.80;99.90;;;;;;5004412;28;20057;-77
2023/09/10 02:49:59;;;;;;;48.30;43.38;;;17.80;99.90;;;;;;5017585;28;20043;-74
2023/09/10 02:52:26;;;;;;;50.53;45.25;;;17.80;99.90;;;;;;5043370;28;20044;-74
2023/09/10 02:54:52;;;;;;;50.42;45.20;;;17.80;99.90;;;;;;5024088;28;20048;-74
2023/09/10 02:57:18;;;;;;;53.47;47.78;;;17.80;99.90;;;;;;5041544;28;20487;-74
2023/09/10 02:59:44;;;;;;;52.30;46.85;;;17.80;99.90;;;;;;5044686;28;20049;-75
2023/09/10 03:02:09;;;;;;;50.45;45.30;;;17.80;99.90;;;;;;5046339;28;20045;-75
2023/09/10 03:04:35;;;;;;;52.85;47.35;;;17.70;99.90;;;;;;5059455;28;20056;-75
2023/09/10 03:07:01;;;;;;;49.45;44.25;;;17.70;99.90;;;;;;5057106;28;20390;-75
2023/09/10 03:09:27;;;;;;;50.28;44.95;;;17.70;99.90;;;;;;5019729;28;20125;-76
2023/09/10 03:11:57;;;;;;;49.08;43.90;;;17.70;99.90;;;;;;5038512;28;20048;-76
2023/09/10 03:14:23;;;;;;;51.00;45.80;;;17.60;99.90;;;;;;5040963;28;20040;-76
2023/09/10 03:16:49;;;;;;;48.97;43.88;;;17.70;99.90;;;;;;5055404;28;20053;-75
2023/09/10 03:19:14;;;;;;;51.17;45.67;;;17.70;99.90;;;;;;5040204;28;20052;-76
2023/09/10 03:21:40;;;;;;;51.92;46.60;;;17.70;99.90;;;;;;5020677;28;21717;-76
2023/09/10 03:24:09;;;;;;;51.78;46.28;;;17.70;99.90;;;;;;5056713;28;20044;-75
2023/09/10 03:26:35;;;;;;;50.20;45.00;;;17.70;99.90;;;;;;5055377;28;20079;-76
2023/09/10 03:29:01;;;;;;;50.10;44.67;;;17.70;99.90;;;;;;5038249;28;20067;-76
2023/09/10 03:31:27;;;;;;;51.53;46.03;;;17.70;99.90;;;;;;5056879;28;20434;-75
2023/09/10 03:33:53;;;;;;;52.47;46.72;;;17.70;99.90;;;;;;5042390;28;20231;-74
2023/09/10 03:36:19;;;;;;;55.50;49.10;;;17.70;99.90;;;;;;5015374;28;20519;-75
2023/09/10 03:38:45;;;;;;;53.40;47.80;;;17.70;99.90;;;;;;4999341;28;20051;-75
2023/09/10 03:41:11;;;;;;;55.70;47.75;;;17.70;99.90;;;;;;5035412;28;20047;-74
2023/09/10 03:43:36;;;;;;;56.72;49.80;;;17.80;99.90;;;;;;5018920;28;20134;-74
2023/09/10 03:46:02;;;;;;;56.20;48.72;;;17.80;99.90;;;;;;5039769;28;20067;-74
2023/09/10 03:48:28;;;;;;;58.60;51.45;;;17.80;99.90;;;;;;5034534;28;20055;-74
2023/09/10 03:50:53;;;;;;;57.30;51.03;;;17.80;99.90;;;;;;5055102;28;20044;-74
2023/09/10 03:53:19;;;;;;;53.58;47.53;;;17.80;99.90;;;;;;5041314;28;20269;-72
2023/09/10 03:55:45;;;;;;;53.30;46.38;;;17.80;99.90;;;;;;5016621;28;20110;-74
2023/09/10 03:58:11;;;;;;;51.85;46.42;;;17.80;99.90;;;;;;5024610;28;20056;-75
2023/09/10 04:00:37;;;;;;;49.40;44.03;;;17.80;99.90;;;;;;5037683;28;20036;-73
2023/09/10 04:03:04;;;;;;;48.45;43.22;;;17.70;99.90;;;;;;5038455;28;20053;-73
2023/09/10 04:05:30;;;;;;;41.72;37.53;;;17.70;99.90;;;;;;5056547;28;20624;-73
2023/09/10 04:07:56;;;;;;;37.75;34.05;;;17.70;99.90;;;;;;5055149;28;20040;-74
2023/09/10 04:10:21;;;;;;;34.28;30.92;;;17.60;99.90;;;;;;5039482;28;20474;-73
2023/09/10 04:12:47;;;;;;;38.00;34.30;;;17.70;99.90;;;;;;5057168;28;20088;-73
2023/09/10 04:15:13;;;;;;;39.20;35.30;;;17.60;99.90;;;;;;5053787;28;20441;-74
2023/09/10 04:17:38;;;;;;;38.47;34.58;;;17.60;99.90;;;;;;5053601;28;20096;-73
2023/09/10 04:20:07;;;;;;;39.15;35.15;;;17.60;99.90;;;;;;5024655;28;20570;-73
2023/09/10 04:22:33;;;;;;;35.03;31.63;;;17.60;99.90;;;;;;5037747;28;20457;-74
2023/09/10 04:24:59;;;;;;;35.58;32.20;;;17.60;99.90;;;;;;5043228;28;20040;-77
2023/09/10 04:27:24;;;;;;;35.67;32.15;;;17.60;99.90;;;;;;5003334;28;20049;-80
2023/09/10 04:29:54;;;;;;;34.63;31.30;;;17.60;99.90;;;;;;5056434;28;20130;-81
2023/09/10 04:32:20;;;;;;;38.63;34.88;;;17.50;99.90;;;;;;5022090;28;20051;-78
2023/09/10 04:34:46;;;;;;;38.83;35.08;;;17.50;99.90;;;;;;5015291;28;20365;-77
2023/09/10 04:37:12;;;;;;;38.60;34.95;;;17.00;99.90;;;;;;5014455;28;20048;-79
2023/09/10 04:39:38;;;;;;;35.65;32.30;;;17.50;99.90;;;;;;5035824;28;20040;-75
2023/09/10 04:42:03;;;;;;;37.80;34.05;;;17.50;99.90;;;;;;5055464;28;20039;-75
2023/09/10 04:44:29;;;;;;;34.92;31.45;;;17.50;99.90;;;;;;5039729;28;20048;-76
2023/09/10 04:46:55;;;;;;;42.92;38.55;;;17.50;99.90;;;;;;5035615;28;20086;-75
2023/09/10 04:49:24;;;;;;;40.10;36.15;;;17.50;99.90;;;;;;5021255;28;20037;-75
2023/09/10 04:51:50;;;;;;;45.22;40.40;;;17.40;99.90;;;;;;5036949;28;20044;-74
2023/09/10 04:54:15;;;;;;;43.95;39.63;;;17.50;99.90;;;;;;5036221;28;20404;-74
2023/09/10 04:56:41;;;;;;;40.72;36.53;;;17.50;99.90;;;;;;5040635;28;21733;-73
2023/09/10 04:59:07;;;;;;;39.72;35.63;;;17.40;99.90;;;;;;5028165;28;20144;-75
2023/09/10 05:01:33;;;;;;;38.63;34.70;;;17.50;99.90;;;;;;4997445;28;20049;-75
2023/09/10 05:03:58;;;;;;;39.28;35.33;;;17.40;99.90;;;;;;5020795;28;20505;-75
2023/09/10 05:06:24;;;;;;;35.83;32.40;;;17.40;99.90;;;;;;5033886;28;20057;-76
2023/09/10 05:08:50;;;;;;;35.92;32.42;;;17.40;99.90;;;;;;5032181;28;20039;-76
2023/09/10 05:11:17;;;;;;;36.33;32.72;;;17.50;99.90;;;;;;5010981;28;20037;-76
2023/09/10 05:13:43;;;;;;;33.80;30.58;;;17.40;99.90;;;;;;5053643;28;20036;-75
2023/09/10 05:16:08;;;;;;;35.95;32.38;;;17.40;99.90;;;;;;5031563;28;20470;-76
2023/09/10 05:18:34;;;;;;;36.15;32.65;;;17.50;99.90;;;;;;5029571;28;20043;-81
2023/09/10 05:21:00;;;;;;;34.72;31.20;;;17.50;99.90;;;;;;5022596;28;20048;-78
2023/09/10 05:23:28;;;;;;;36.28;32.70;;;17.40;99.90;;;;;;5036760;28;20036;-75
2023/09/10 05:25:54;;;;;;;34.88;31.45;;;17.40;99.90;;;;;;5037854;28;20048;-77
2023/09/10 05:28:21;;;;;;;35.28;31.80;;;17.50;99.90;;;;;;5032852;28;20050;-74
2023/09/10 05:30:46;;;;;;;36.70;33.08;;;17.50;99.90;;;;;;5035301;28;20040;-73
2023/09/10 05:33:12;;;;;;;38.42;34.63;;;17.50;99.90;;;;;;5015526;28;21974;-73
2023/09/10 05:35:38;;;;;;;36.10;32.50;;;17.50;99.90;;;;;;5027802;28;20071;-73
2023/09/10 05:38:04;;;;;;;36.20;32.65;;;17.50;99.90;;;;;;5029980;28;20048;-74
2023/09/10 05:40:36;;;;;;;36.75;33.08;;;17.50;99.90;;;;;;5049151;28;20059;-73
2023/09/10 05:43:04;;;;;;;38.92;34.92;;;17.50;99.90;;;;;;5029909;28;20084;-73
2023/09/10 05:45:32;;;;;;;37.05;33.35;;;17.60;99.90;;;;;;5031695;28;20048;-73
2023/09/10 05:47:58;;;;;;;38.22;34.28;;;17.60;99.90;;;;;;5031656;28;23013;-73
2023/09/10 05:50:24;;;;;;;38.40;34.60;;;17.60;99.90;;;;;;5029821;28;22747;-73
2023/09/10 05:52:50;;;;;;;39.13;35.22;;;17.60;99.90;;;;;;5033302;28;20055;-73
2023/09/10 05:55:16;;;;;;;38.33;34.33;;;17.70;99.90;;;;;;5020494;28;20042;-74
2023/09/10 05:57:42;;;;;;;42.10;37.65;;;17.70;99.90;;;;;;5034006;28;20310;-74
2023/09/10 06:00:08;;;;;;;46.65;40.03;;;17.70;99.90;;;;;;5016559;28;20131;-73
2023/09/10 06:02:34;;;;;;;43.00;38.20;;;17.70;99.90;;;;;;5031782;28;21808;-73
2023/09/10 06:04:59;;;;;;;39.65;35.65;;;17.70;99.90;;;;;;4995690;28;20079;-74
2023/09/10 06:07:25;;;;;;;44.17;38.30;;;17.70;99.90;;;;;;5030590;28;20051;-73
2023/09/10 06:09:51;;;;;;;46.75;40.45;;;17.70;99.90;;;;;;5032682;28;20525;-74
2023/09/10 06:12:17;;;;;;;42.70;37.97;;;17.70;99.90;;;;;;5048455;28;20064;-73
2023/09/10 06:14:42;;;;;;;41.30;36.90;;;17.80;99.90;;;;;;5011217;28;20992;-73
2023/09/10 06:17:08;;;;;;;40.70;36.33;;;17.80;99.90;;;;;;5013288;28;20234;-73
2023/09/10 06:19:34;;;;;;;41.40;37.00;;;17.90;99.90;;;;;;5006436;28;20044;-74
2023/09/10 06:22:00;;;;;;;43.78;39.13;;;17.90;99.90;;;;;;5031285;28;20037;-73
2023/09/10 06:24:25;;;;;;;41.38;37.08;;;18.00;99.90;;;;;;5053904;28;20048;-74
2023/09/10 06:26:51;;;;;;;41.53;37.13;;;18.00;99.90;;;;;;5017548;28;20418;-73
2023/09/10 06:29:23;;;;;;;40.65;36.45;;;18.00;99.90;;;;;;5005658;28;20056;-73
2023/09/10 06:31:49;;;;;;;39.78;35.42;;;18.10;99.90;;;;;;5007190;28;20117;-73
2023/09/10 06:34:15;;;;;;;43.35;38.28;;;18.10;99.90;;;;;;5038505;28;20041;-73
2023/09/10 06:36:41;;;;;;;41.40;37.03;;;18.20;99.90;;;;;;5031433;28;20059;-74
2023/09/10 06:39:06;;;;;;;42.72;38.33;;;18.30;99.90;;;;;;5024562;28;20065;-75
2023/09/10 06:41:32;;;;;;;43.17;38.72;;;18.30;99.90;;;;;;5028005;28;20086;-74
2023/09/10 06:43:58;;;;;;;48.63;40.50;;;18.40;99.90;;;;;;5049097;28;20044;-74
2023/09/10 06:46:24;;;;;;;45.40;40.45;;;18.50;99.90;;;;;;5007929;28;20056;-73
2023/09/10 06:48:50;;;;;;;50.42;40.83;;;18.60;99.90;;;;;;5026911;28;20054;-73
2023/09/10 06:51:15;;;;;;;49.47;42.20;;;18.60;99.90;;;;;;5026540;28;20135;-74
2023/09/10 06:53:41;;;;;;;48.13;41.88;;;18.70;99.90;;;;;;4999149;28;20059;-74
2023/09/10 06:56:07;;;;;;;47.00;40.92;;;18.80;99.90;;;;;;5008232;28;20537;-81
2023/09/10 06:58:33;;;;;;;48.70;42.33;;;18.90;99.90;;;;;;5025725;28;20075;-74
2023/09/10 07:01:04;;;;;;;45.95;40.45;;;19.00;99.90;;;;;;5012361;28;20819;-73
2023/09/10 07:03:33;;;;;;;49.95;40.28;;;19.10;99.90;;;;;;5012772;28;20055;-73
2023/09/10 07:05:59;;;;;;;50.05;43.03;;;19.20;99.90;;;;;;5028100;28;20044;-73
2023/09/10 07:08:25;;;;;;;51.60;44.03;;;19.30;99.90;;;;;;5031605;28;20534;-74
2023/09/10 07:10:51;;;;;;;52.47;44.28;;;19.40;99.90;;;;;;4992705;28;20523;-74
2023/09/10 07:13:17;;;;;;;44.53;39.58;;;19.50;99.90;;;;;;5030598;28;20053;-74
2023/09/10 07:15:42;;;;;;;45.63;40.67;;;19.70;99.90;;;;;;5008976;28;20053;-74
2023/09/10 07:18:08;;;;;;;49.55;43.13;;;19.80;99.90;;;;;;5051133;28;20660;-73
2023/09/10 07:20:34;;;;;;;56.00;42.08;;;19.90;99.90;;;;;;5022505;28;20098;-73
2023/09/10 07:23:00;;;;;;;46.80;41.75;;;20.10;99.90;;;;;;5031468;28;20051;-74
2023/09/10 07:25:26;;;;;;;49.88;40.80;;;20.20;99.90;;;;;;5048976;28;20053;-74
2023/09/10 07:27:51;;;;;;;47.33;41.05;;;20.40;99.90;;;;;;5027569;28;20076;-74
2023/09/10 07:30:17;;;;;;;48.35;40.55;;;20.60;99.90;;;;;;5030025;28;20499;-73
2023/09/10 07:32:43;;;;;;;43.95;37.28;;;20.70;99.90;;;;;;5054202;28;20099;-74
2023/09/10 07:35:08;;;;;;;41.17;36.47;;;20.80;99.90;;;;;;5031831;28;20049;-75
2023/09/10 07:37:34;;;;;;;41.80;36.58;;;21.00;99.90;;;;;;5034861;28;20411;-75
2023/09/10 07:40:00;;;;;;;41.97;36.35;;;21.20;99.90;;;;;;5008583;28;20092;-76
2023/09/10 07:42:26;;;;;;;39.88;34.85;;;21.40;99.90;;;;;;5030443;28;20055;-76
2023/09/10 07:44:52;;;;;;;35.53;31.63;;;21.50;99.90;;;;;;5026237;28;20410;-77
2023/09/10 07:47:17;;;;;;;37.97;32.33;;;21.70;99.90;;;;;;5036030;28;20105;-76
2023/09/10 07:49:43;;;;;;;36.80;32.85;;;21.80;99.90;;;;;;5035064;28;20113;-76
2023/09/10 07:52:14;;;;;;;33.20;29.60;;;22.00;99.90;;;;;;5050052;28;20087;-76
2023/09/10 07:54:42;;;;;;;33.65;30.15;;;22.20;99.90;;;;;;5037454;28;20727;-77
2023/09/10 07:57:08;;;;;;;33.58;29.98;;;22.40;99.90;;;;;;5016184;28;20063;-77
2023/09/10 07:59:33;;;;;;;32.35;28.88;;;22.60;99.90;;;;;;5035790;28;20056;-77
2023/09/10 08:02:02;;;;;;;31.00;27.75;;;22.80;99.90;;;;;;5012996;28;20155;-77
2023/09/10 08:04:28;;;;;;;31.17;26.98;;;23.00;99.40;;;;;;5029077;28;20059;-76
2023/09/10 08:06:54;;;;;;;29.05;26.05;;;23.10;98.80;;;;;;5049606;28;20047;-76
2023/09/10 08:09:20;;;;;;;27.67;24.67;;;23.40;98.40;;;;;;5030665;28;20752;-76
2023/09/10 08:11:45;;;;;;;28.00;23.58;;;23.50;97.60;;;;;;5026168;28;20347;-76
2023/09/10 08:14:12;;;;;;;26.50;23.58;;;23.70;97.00;;;;;;5030297;28;20786;-76
2023/09/10 08:16:37;;;;;;;26.00;23.13;;;24.00;96.30;;;;;;5029864;28;20090;-76
2023/09/10 08:19:03;;;;;;;23.42;21.02;;;24.20;95.80;;;;;;4999992;28;20060;-76
2023/09/10 08:21:29;;;;;;;24.33;21.02;;;24.30;94.50;;;;;;4996648;28;20060;-75
2023/09/10 08:23:54;;;;;;;23.95;21.05;;;24.50;93.60;;;;;;5035085;28;20052;-74
2023/09/10 08:26:21;;;;;;;23.73;20.15;;;24.70;92.70;;;;;;5021758;28;20048;-75
2023/09/10 08:28:46;;;;;;;20.30;18.27;;;24.80;91.80;;;;;;5002607;28;20652;-75
2023/09/10 08:31:12;;;;;;;24.92;18.95;;;25.00;90.90;;;;;;5049965;28;20045;-75
2023/09/10 08:33:38;;;;;;;19.05;16.83;;;25.10;90.00;;;;;;5018949;28;20048;-75
2023/09/10 08:36:03;;;;;;;17.73;15.93;;;25.30;88.80;;;;;;5038852;28;20044;-76
2023/09/10 08:38:29;;;;;;;19.90;16.15;;;25.50;87.30;;;;;;5021613;28;20479;-76
2023/09/10 08:41:02;;;;;;;18.45;16.13;;;25.70;84.80;;;;;;5029132;28;20471;-75
2023/09/10 08:43:51;;;;;;;17.98;15.70;;;25.90;82.30;;;;;;5029384;28;20138;-75
2023/09/10 08:46:21;;;;;;;19.80;15.82;;;26.10;77.70;;;;;;5053100;28;20092;-76
2023/09/10 08:48:48;;;;;;;18.95;16.95;;;26.20;78.70;;;;;;5030495;28;20052;-76
2023/09/10 08:51:15;;;;;;;19.13;15.07;;;26.30;77.00;;;;;;5020903;28;20122;-76
2023/09/10 08:53:43;;;;;;;17.25;15.45;;;26.40;74.70;;;;;;5036487;28;20048;-75
2023/09/10 08:56:09;;;;;;;16.90;15.07;;;26.50;73.00;;;;;;5044851;28;20060;-75
2023/09/10 08:58:37;;;;;;;17.65;14.70;;;26.70;73.10;;;;;;5042440;28;20074;-76
2023/09/10 09:01:04;;;;;;;19.65;15.32;;;26.80;72.00;;;;;;5052015;28;20460;-75
2023/09/10 09:03:30;;;;;;;14.95;13.52;;;27.00;69.30;;;;;;5045359;28;20036;-75
2023/09/10 09:06:03;;;;;;;16.85;14.70;;;27.10;66.70;;;;;;5048316;28;20040;-75
2023/09/10 09:08:34;;;;;;;15.18;13.57;;;27.30;63.70;;;;;;5043477;28;20494;-75
2023/09/10 09:11:06;;;;;;;17.52;14.45;;;27.50;62.60;;;;;;5043269;28;20384;-75
2023/09/10 09:13:38;;;;;;;16.90;14.23;;;27.60;60.30;;;;;;5029422;28;20090;-75
2023/09/10 09:16:05;;;;;;;15.40;12.57;;;27.70;59.40;;;;;;5044241;28;20455;-75
2023/09/10 09:18:33;;;;;;;16.50;12.43;;;27.80;56.40;;;;;;5043889;28;20051;-75
2023/09/10 09:21:17;;;;;;;13.50;11.93;;;28.00;54.70;;;;;;5044254;28;20048;-75
2023/09/10 09:23:46;;;;;;;14.18;12.35;;;28.20;46.70;;;;;;5063534;28;20127;-75
2023/09/10 09:26:14;;;;;;;14.43;12.93;;;28.40;48.70;;;;;;5043014;28;20060;-75
2023/09/10 09:28:40;;;;;;;16.60;13.88;;;28.50;42.20;;;;;;5017817;28;20056;-75
2023/09/10 09:31:10;;;;;;;15.40;12.10;;;28.60;37.30;;;;;;5041338;28;20045;-75
2023/09/10 09:33:38;;;;;;;13.70;12.35;;;28.70;35.90;;;;;;5041626;28;20488;-75
2023/09/10 09:36:08;;;;;;;14.35;12.00;;;28.80;32.00;;;;;;5062458;28;20114;-76
2023/09/10 09:38:34;;;;;;;15.73;11.63;;;28.90;28.90;;;;;;5050353;28;20048;-75
2023/09/10 09:41:06;;;;;;;13.45;10.73;;;28.90;26.40;;;;;;5060103;28;20407;-75
2023/09/10 09:43:35;;;;;;;15.43;12.32;;;29.10;24.50;;;;;;5053603;28;20045;-76
2023/09/10 09:46:01;;;;;;;14.02;11.38;;;29.20;21.30;;;;;;5045466;28;20036;-75
2023/09/10 09:48:27;;;;;;;16.00;11.05;;;29.40;19.40;;;;;;5021217;28;20628;-75
2023/09/10 09:50:57;;;;;;;14.23;12.73;;;29.60;14.00;;;;;;5047094;28;20059;-75
2023/09/10 09:53:31;;;;;;;14.15;12.52;;;29.60;8.30;;;;;;5062365;28;20044;-76
2023/09/10 09:56:01;;;;;;;19.42;11.88;;;29.80;4.00;;;;;;5062431;28;20097;-75
2023/09/10 09:58:30;;;;;;;13.55;12.07;;;29.90;2.80;;;;;;5042572;28;20471;-76
2023/09/10 10:00:56;;;;;;;14.30;12.48;;;30.00;2.50;;;;;;5025984;28;20071;-76
2023/09/10 10:03:22;;;;;;;16.48;13.10;;;30.20;1.00;;;;;;5042778;28;20440;-75
2023/09/10 10:05:53;;;;;;;13.00;10.63;;;30.30;1.00;;;;;;5028056;28;20137;-75
2023/09/10 10:08:25;;;;;;;14.23;10.60;;;30.40;1.00;;;;;;5026664;28;20075;-75
2023/09/10 10:10:51;;;;;;;11.90;10.32;;;30.70;1.00;;;;;;5041820;28;20044;-76
2023/09/10 10:13:19;;;;;;;10.93;9.45;;;30.90;1.00;;;;;;5061634;28;20128;-76
2023/09/10 10:15:50;;;;;;;14.30;10.32;;;31.00;1.00;;;;;;5052330;28;20064;-76
2023/09/10 10:18:17;;;;;;;13.88;9.25;;;31.10;1.00;;;;;;5042092;28;20054;-76
2023/09/10 10:20:46;;;;;;;10.65;9.45;;;31.20;1.00;;;;;;5026772;28;20058;-76
2023/09/10 10:23:20;;;;;;;11.57;9.45;;;31.20;1.00;;;;;;5045016;28;20044;-76
2023/09/10 10:25:46;;;;;;;16.10;9.27;;;31.20;1.00;;;;;;5028990;28;20181;-76
2023/09/10 10:28:13;;;;;;;13.90;8.88;;;31.30;1.00;;;;;;5023793;28;20051;-75
2023/09/10 10:30:50;;;;;;;12.13;8.07;;;31.40;1.00;;;;;;5041318;28;20040;-76
2023/09/10 10:33:21;;;;;;;13.70;8.45;;;31.70;1.00;;;;;;5065188;28;20050;-76
2023/09/10 10:36:30;;;;;;;9.75;7.40;;;31.80;1.00;;;;;;5047793;28;20049;-77
2023/09/10 10:38:56;;;;;;;11.40;7.03;;;31.90;1.00;;;;;;5048522;28;20045;-76
2023/09/10 10:41:25;;;;;;;11.30;8.20;;;32.00;1.00;;;;;;5023667;28;20051;-76
2023/09/10 10:43:58;;;;;;;11.27;8.30;;;32.10;1.00;;;;;;5042916;28;20041;-77
2023/09/10 10:46:26;;;;;;;12.35;7.60;;;32.10;99.90;;;;;;5043172;28;20044;-76
2023/09/10 10:48:52;;;;;;;15.65;8.15;;;32.30;99.90;;;;;;5041246;28;20080;-75
2023/09/10 10:51:18;;;;;;;10.55;9.07;;;32.20;99.90;;;;;;5042210;28;20048;-76
2023/09/10 10:53:46;;;;;;;11.95;8.85;;;32.50;99.90;;;;;;5063392;28;20166;-76
2023/09/10 10:56:13;;;;;;;12.30;8.50;;;32.30;99.90;;;;;;5046644;28;20044;-76
2023/09/10 10:58:41;;;;;;;11.77;7.45;;;32.30;99.90;;;;;;5027102;28;20107;-76
2023/09/10 11:01:11;;;;;;;10.93;7.40;;;32.40;99.90;;;;;;5038084;28;20056;-76
2023/09/10 11:03:44;;;;;;;13.45;7.43;;;32.70;99.90;;;;;;5054862;28;20563;-76
2023/09/10 11:06:10;;;;;;;12.35;6.70;;;32.90;99.90;;;;;;4997696;28;20084;-75
2023/09/10 11:08:41;;;;;;;10.27;6.82;;;33.00;1.00;;;;;;5020890;28;20081;-75
2023/09/10 11:11:27;;;;;;;11.85;6.90;;;33.20;1.00;;;;;;5020972;28;20451;-76
2023/09/10 11:14:02;;;;;;;7.63;6.82;;;33.20;1.00;;;;;;5056789;28;20125;-76
2023/09/10 11:16:43;;;;;;;13.48;6.55;;;33.20;99.90;;;;;;5024859;28;20040;-76
2023/09/10 11:19:45;;;;;;;10.30;6.63;;;33.30;99.90;;;;;;5031865;28;20145;-75
2023/09/10 11:22:10;;;;;;;14.88;7.60;;;33.40;99.90;;;;;;5037599;28;20503;-76
2023/09/10 11:24:36;;;;;;;12.40;6.68;;;33.40;99.90;;;;;;5033867;28;20049;-77
2023/09/10 11:27:22;;;;;;;15.57;6.97;;;33.50;99.90;;;;;;5054491;28;20056;-76
2023/09/10 11:30:07;;;;;;;11.23;7.15;;;33.40;99.90;;;;;;5041833;28;20055;-76
2023/09/10 11:32:33;;;;;;;13.60;6.55;;;33.50;99.90;;;;;;5040651;28;20832;-76
2023/09/10 11:35:23;;;;;;;13.75;7.18;;;33.40;1.00;;;;;;5043404;28;20048;-75
2023/09/10 11:37:51;;;;;;;10.68;7.47;;;33.50;1.00;;;;;;5037301;28;21112;-76
2023/09/10 11:40:18;;;;;;;11.77;8.20;;;33.50;1.00;;;;;;5049980;28;20696;-74
2023/09/10 11:42:45;;;;;;;13.35;8.18;;;33.60;99.90;;;;;;5040668;28;20044;-76
2023/09/10 11:45:13;;;;;;;9.02;7.70;;;33.60;1.00;;;;;;5035718;28;20048;-75
2023/09/10 11:47:44;;;;;;;12.02;7.65;;;33.60;1.00;;;;;;5054717;28;20045;-76
2023/09/10 11:50:13;;;;;;;15.02;8.07;;;33.70;1.00;;;;;;5046276;28;20119;-76
2023/09/10 11:52:40;;;;;;;12.48;7.43;;;33.90;99.90;;;;;;5027920;28;20041;-76
2023/09/10 11:55:09;;;;;;;10.60;6.10;;;34.10;99.90;;;;;;5053566;28;20036;-76
2023/09/10 11:57:38;;;;;;;10.23;6.95;;;34.20;99.90;;;;;;5034310;28;20499;-76
2023/09/10 12:00:05;;;;;;;12.18;6.35;;;34.30;99.90;;;;;;5038824;28;20053;-76
2023/09/10 12:02:31;;;;;;;13.32;6.43;;;34.50;1.00;;;;;;5046217;28;20051;-77
2023/09/10 12:05:02;;;;;;;16.10;6.82;;;34.80;1.00;;;;;;5036640;28;20060;-76
2023/09/10 12:07:28;;;;;;;12.00;6.00;;;34.80;99.90;;;;;;5053620;28;20057;-76
2023/09/10 12:09:53;;;;;;;11.45;6.03;;;35.00;51.10;;;;;;5036698;28;20052;-76
2023/09/10 12:12:27;;;;;;;10.95;6.20;;;35.00;1.00;;;;;;5051877;28;20032;-75
2023/09/10 12:14:54;;;;;;;12.52;6.57;;;34.90;99.90;;;;;;5032145;28;20400;-76
2023/09/10 12:17:19;;;;;;;16.55;7.13;;;34.90;99.90;;;;;;5019982;28;20075;-76
2023/09/10 12:19:46;;;;;;;10.48;6.10;;;35.10;88.80;;;;;;5050191;28;20178;-77
2023/09/10 12:22:14;;;;;;;11.20;6.25;;;35.00;1.00;;;;;;5032458;28;20463;-76
2023/09/10 12:24:40;;;;;;;14.25;6.50;;;35.00;99.90;;;;;;5033183;28;20056;-76
2023/09/10 12:27:06;;;;;;;16.23;5.70;;;35.10;99.90;;;;;;5036235;28;20048;-75
2023/09/10 12:29:32;;;;;;;17.90;6.57;;;35.20;99.90;;;;;;5033359;28;20037;-76
2023/09/10 12:31:58;;;;;;;15.98;6.28;;;35.40;99.90;;;;;;5026688;28;20056;-76
2023/09/10 12:34:25;;;;;;;14.35;6.45;;;35.50;99.90;;;;;;5032340;28;20049;-77